• Join FlightAware (Why Join?)
  • Login
  • US Flag 
Trick or treat! (Boo!!) 
12:52AM EDT


 

Airport Tracker/Info


-or-


 

Live Flight TrackerFlight Track Log ✈ EJA982 ✈ 09-Jun-2013 ✈ KASE - KSMF

Flight Track Log - Related Links

Times and Time Zones

All times are in EDT time to prevent confusion due to time zone crossing. See the EJA982 flight status page for this flight to view local times or setup timezone preferences in your user account.

Time Position Orientation Groundspeed Altitude Reporting Facility
EDT Latitude Longitude Course Direction KTS MPH feet Rate Location/Type
07:14PM 39.2636 -106.8800 256° West 199 229 9,300  Level Denver Center
07:15PM 39.2894 -106.9553 294° West 245 282 12,600 2,820 Climbing Denver Center
07:17PM 39.3094 -107.0500 285° West 267 307 15,100 1,860 Climbing Denver Center
07:18PM 39.3697 -107.1364 312° West 315 362 16,500 1,320 Climbing Denver Center
07:19PM 39.3903 -107.2722 281° West 370 426 17,900 1,500 Climbing Denver Center
07:20PM 39.3035 -107.5494 256° West  Level FlightAware Approximate
07:20PM 39.3950 -107.4028 273° West 385 443 19,600  Level Denver Center
07:21PM 39.3836 -107.5622 265° West 397 457 21,300 1,500 Climbing Denver Center
07:22PM 39.3708 -107.6997 263° West 402 463 22,700 1,500 Climbing Denver Center
07:23PM 39.3547 -107.8667 263° West 416 479 24,400 1,380 Climbing Denver Center
07:24PM 39.3417 -108.0133 263° West 426 490 25,600 1,260 Climbing Denver Center
07:25PM 39.3253 -108.1878 263° West 435 501 27,100 1,320 Climbing Denver Center
07:26PM 39.3092 -108.3403 262° West 449 517 28,400 1,380 Climbing Denver Center
07:27PM 39.2964 -108.4928 264° West 431 496 30,000 1,440 Climbing Denver Center
07:28PM 39.2775 -108.6742 262° West 450 518 31,400 1,260 Climbing Denver Center
07:29PM 39.2611 -108.8333 262° West 463 533 32,700 1,560 Climbing Denver Center
07:30PM 39.2425 -109.0175 263° West 461 531 34,700 1,680 Climbing Denver Center
07:31PM 39.2294 -109.1450 263° West 455 524 36,000 1,680 Climbing Salt Lake Center
07:32PM 39.2108 -109.3258 262° West 453 521 38,000 1,680 Climbing Salt Lake Center
07:33PM 39.1956 -109.4778 263° West 447 514 39,500 960 Climbing Salt Lake Center
07:34PM 39.1783 -109.6317 262° West 450 518 40,000 240 Climbing Salt Lake Center
07:35PM 39.1703 -109.8167 267° West 462 532 40,000  Level Salt Lake Center
07:36PM 39.1789 -109.9714 274° West 453 521 40,000  Level Salt Lake Center
07:36PM 39.1814 -110.0481 272° West 451 519 40,000  Level Denver Center
07:37PM 39.1869 -110.1489 274° West 445 512 40,000  Level Salt Lake Center
07:38PM 39.1942 -110.3011 274° West 443 510 40,000  Level Salt Lake Center
07:39PM 39.1997 -110.4531 273° West 444 511 40,000  Level Salt Lake Center
07:40PM 39.2069 -110.6333 273° West 449 517 40,000  Level Salt Lake Center
07:41PM 39.2117 -110.7864 272° West 447 514 40,000  Level Salt Lake Center
07:42PM 39.2183 -110.9664 273° West 450 518 40,000  Level Salt Lake Center
07:43PM 39.2239 -111.1211 273° West 452 520 40,000  Level Salt Lake Center
07:44PM 39.2306 -111.2969 273° West 453 521 40,000  Level Salt Lake Center
07:45PM 39.2358 -111.4600 272° West 455 524 40,000  Level Salt Lake Center
07:46PM 39.2408 -111.6233 272° West 456 525 40,000  Level Salt Lake Center
07:47PM 39.2444 -111.7861 272° West 455 524 40,000  Level Salt Lake Center
07:48PM 39.2494 -111.9489 272° West 454 522 40,000  Level Salt Lake Center
07:49PM 39.2553 -112.1136 273° West 457 526 40,000  Level Salt Lake Center
07:50PM 39.2594 -112.3094 272° West 456 525 40,000  Level Salt Lake Center
07:51PM 39.2633 -112.4756 272° West 460 529 40,000  Level Salt Lake Center
07:52PM 39.2675 -112.6383 272° West 459 528 40,000  Level Salt Lake Center
07:53PM 39.2697 -112.7956 271° West 456 525 40,000  Level Salt Lake Center
07:54PM 39.2728 -112.9558 271° West 452 520 40,000  Level Salt Lake Center
07:56PM 39.2761 -113.1197 272° West 457 526 40,000  Level Salt Lake Center
07:57PM 39.2789 -113.3142 271° West 455 524 40,000  Level Salt Lake Center
07:58PM 39.2819 -113.4758 271° West 454 522 40,000  Level Salt Lake Center
07:59PM 39.2839 -113.6383 271° West 454 522 40,000  Level Salt Lake Center
08:00PM 39.2856 -113.8008 271° West 455 524 40,000  Level Salt Lake Center
08:01PM 39.2883 -113.9628 271° West 454 522 40,000  Level Salt Lake Center
08:02PM 39.2889 -114.1253 270° West 455 524 40,000  Level Salt Lake Center
08:03PM 39.2908 -114.2858 271° West 451 519 40,000  Level Salt Lake Center
08:04PM 39.2894 -114.4647 269° West 457 526 40,000  Level Salt Lake Center
08:05PM 39.2914 -114.6439 271° West 450 518 40,000  Level Salt Lake Center
08:06PM 39.2917 -114.7964 270° West 445 512 40,000  Level Salt Lake Center
08:07PM 39.2922 -114.9761 270° West 446 513 40,000  Level Salt Lake Center
08:08PM 39.2931 -115.1286 270° West 444 511 40,000  Level Salt Lake Center
08:09PM 39.2922 -115.2825 270° West 446 513 40,000  Level Salt Lake Center
08:10PM 39.2925 -115.4625 270° West 448 516 40,000  Level Salt Lake Center
08:11PM 39.2919 -115.6169 270° West 448 516 40,000  Level Salt Lake Center
08:12PM 39.2903 -115.7967 269° West 449 517 40,000  Level Salt Lake Center
08:13PM 39.2892 -115.9508 270° West 447 514 40,000  Level Salt Lake Center
08:14PM 39.2886 -116.1064 270° West 451 519 40,000  Level Salt Lake Center
08:15PM 39.2864 -116.2897 269° West 454 522 40,000  Level Salt Lake Center
08:16PM 39.2856 -116.4469 270° West 456 525 40,000  Level Salt Lake Center
08:17PM 39.2822 -116.6314 269° West 458 527 40,000  Level Salt Lake Center
08:18PM 39.2808 -116.7903 269° West 462 532 40,000  Level Salt Lake Center
08:19PM 39.2775 -116.9494 269° West 461 531 40,000  Level Salt Lake Center
08:20PM 39.2753 -117.1361 269° West 464 534 40,000  Level Salt Lake Center
08:21PM 39.2731 -117.2689 269° West 468 539 40,000 -60 Level Oakland Center
08:22PM 39.2700 -117.4189 269° West 471 542 39,900 -720 Descending Oakland Center
08:23PM 39.2664 -117.5875 268° West 471 542 38,600 -960 Descending Oakland Center
08:24PM 39.2614 -117.7919 268° West 473 544 38,000 -300 Descending Oakland Center
08:25PM 39.2575 -117.9608 268° West 472 543 38,000  Level Oakland Center
08:26PM 39.2536 -118.1275 268° West 465 535 38,000  Level Oakland Center
08:27PM 39.2497 -118.2925 268° West 459 528 38,000  Level Oakland Center
08:28PM 39.2444 -118.4619 268° West 454 522 38,000  Level Oakland Center
08:29PM 39.2397 -118.6244 268° West 453 521 38,000  Level Oakland Center
08:30PM 39.2339 -118.7878 267° West 456 525 38,000  Level Oakland Center
08:31PM 39.2300 -118.9467 268° West 448 516 38,000  Level Oakland Center
08:32PM 39.2239 -119.1153 267° West 453 521 38,000 -1,080 Level Oakland Center
08:33PM 39.2178 -119.2844 267° West 468 539 35,900 -2,400 Descending Oakland Center
08:34PM 39.2117 -119.4614 268° West 489 563 33,200 -3,000 Descending Oakland Center
08:35PM 39.2047 -119.6436 267° West 504 580 29,700 -3,420 Descending Oakland Center
08:36PM 39.1992 -119.8231 268° West 502 578 26,200 -3,360 Descending Oakland Center
08:37PM 39.1942 -119.9942 268° West 485 558 23,000 -3,120 Descending Oakland Center
08:38PM 39.1656 -120.1553 257° West 430 495 19,900 -2,940 Descending Oakland Center
08:39PM 39.1364 -120.3017 256° West 422 486 17,000 -1,920 Descending Oakland Center
08:40PM 39.1075 -120.4475 256° West 421 484 16,000 -1,140 Descending Oakland Center
08:41PM 39.0783 -120.5903 255° West 414 476 14,700 -1,740 Descending Oakland Center
08:42PM 39.0492 -120.7306 255° West 410 472 12,500 -2,280 Descending Oakland Center
08:43PM 39.0150 -120.8961 255° West 401 461 10,100 -1,320 Descending Oakland Center
08:44PM 38.9897 -121.0128 254° West 340 391 9,900 -1,080 Descending Oakland Center
08:45PM 38.9636 -121.1108 251° West 296 341 8,000 -1,920 Descending Oakland Center
08:46PM 38.9500 -121.1667 253° West 294 338 7,000 -1,020 Descending Northern Cal TRACON
08:47PM 38.9167 -121.2667 247° West 284 327 6,500 -1,140 Descending Northern Cal TRACON
08:48PM 38.9000 -121.3667 258° West 274 315 4,800 -1,740 Descending Northern Cal TRACON
08:49PM 38.8833 -121.4500 256° West 266 306 3,100 -1,380 Descending Northern Cal TRACON
08:50PM 38.8500 -121.5333 243° Southwest 238 274 2,100 -600 Descending Northern Cal TRACON
08:51PM 38.8167 -121.5833 229° Southwest 186 214 2,000 -360 Descending Northern Cal TRACON
08:52PM 38.7667 -121.6000 195° South 172 198 1,400 -720 Descending Northern Cal TRACON
08:53PM 38.7333 -121.6000 180° South 118 136 600 -840 Descending Northern Cal TRACON
08:56PM 38.6954 -121.5908 173° South  Level Estimated
09:03PM 38.6954 -121.5908 173° South  Level Estimated